createdAt,value
2023-01-19T00:00:26.057Z,23.30
2023-01-19T00:00:58.710Z,24.30
2023-01-19T00:01:31.380Z,21.80
2023-01-19T00:02:04.046Z,22.00
2023-01-19T00:02:35.220Z,23.20
2023-01-19T00:03:07.942Z,24.60
2023-01-19T00:03:40.609Z,23.40
2023-01-19T00:04:13.298Z,23.10
2023-01-19T00:04:45.975Z,21.80
2023-01-19T00:05:18.645Z,23.30
2023-01-19T00:05:51.360Z,23.30
2023-01-19T00:06:24.077Z,27.30
2023-01-19T00:06:56.714Z,25.90
2023-01-19T00:07:29.388Z,28.20
2023-01-19T00:08:02.418Z,23.30
2023-01-19T00:08:28.847Z,23.50
2023-01-19T00:09:01.533Z,26.20
2023-01-19T00:09:32.630Z,25.30
2023-01-19T00:10:05.310Z,24.50
2023-01-19T00:10:37.961Z,25.50
2023-01-19T00:11:10.643Z,24.80
2023-01-19T00:11:43.303Z,24.30
2023-01-19T00:12:15.971Z,24.10
2023-01-19T00:12:48.637Z,21.20
2023-01-19T00:13:21.309Z,23.50
2023-01-19T00:13:54.026Z,24.80
2023-01-19T00:14:26.705Z,26.10
2023-01-19T00:14:59.367Z,27.40
2023-01-19T00:15:32.062Z,23.30
2023-01-19T00:16:04.776Z,23.10
2023-01-19T00:16:37.428Z,22.60
2023-01-19T00:17:10.093Z,22.00
2023-01-19T00:17:42.773Z,22.90
2023-01-19T00:18:15.459Z,23.80
2023-01-19T00:18:48.097Z,22.50
2023-01-19T00:19:20.781Z,24.90
2023-01-19T00:19:53.467Z,24.50
2023-01-19T00:20:26.135Z,25.50
2023-01-19T00:20:58.823Z,24.00
2023-01-19T00:21:31.491Z,25.80
2023-01-19T00:22:04.163Z,25.70
2023-01-19T00:22:36.842Z,27.70
2023-01-19T00:23:09.568Z,25.00
2023-01-19T00:23:42.203Z,24.50
2023-01-19T00:24:14.902Z,24.60
2023-01-19T00:24:47.570Z,25.90
2023-01-19T00:25:20.236Z,27.30
2023-01-19T00:25:52.907Z,28.00
2023-01-19T00:26:25.595Z,27.40
2023-01-19T00:26:58.257Z,25.60
2023-01-19T00:27:30.938Z,26.50
2023-01-19T00:28:03.616Z,24.70
2023-01-19T00:28:36.285Z,25.80
2023-01-19T00:29:08.954Z,24.90
2023-01-19T00:29:41.631Z,24.40
2023-01-19T00:30:14.306Z,25.90
2023-01-19T00:30:46.988Z,25.00
2023-01-19T00:31:19.712Z,23.00
2023-01-19T00:31:52.361Z,24.90
2023-01-19T00:32:25.045Z,26.10
2023-01-19T00:32:58.275Z,22.00
2023-01-19T00:33:24.743Z,26.00
2023-01-19T00:33:57.414Z,23.20
2023-01-19T00:34:30.080Z,23.00
2023-01-19T00:35:02.785Z,23.30
2023-01-19T00:35:35.457Z,24.20
2023-01-19T00:36:08.131Z,24.90
2023-01-19T00:36:40.801Z,24.70
2023-01-19T00:37:13.497Z,24.80
2023-01-19T00:37:46.197Z,26.80
2023-01-19T00:38:18.839Z,22.80
2023-01-19T00:38:51.515Z,24.80
2023-01-19T00:39:24.186Z,24.70
2023-01-19T00:39:56.872Z,23.30
2023-01-19T00:40:29.553Z,24.10
2023-01-19T00:41:02.227Z,24.00
2023-01-19T00:41:34.909Z,23.10
2023-01-19T00:42:07.580Z,24.90
2023-01-19T00:42:40.260Z,24.50
2023-01-19T00:43:12.917Z,24.70
2023-01-19T00:43:45.623Z,25.90
2023-01-19T00:44:18.299Z,26.30
2023-01-19T00:44:50.976Z,25.00
2023-01-19T00:45:23.705Z,23.50
2023-01-19T00:45:56.441Z,23.70
2023-01-19T00:46:29.083Z,23.20
2023-01-19T00:47:01.786Z,24.20
2023-01-19T00:47:34.451Z,24.40
2023-01-19T00:48:07.111Z,21.50
2023-01-19T00:48:39.824Z,23.60
2023-01-19T00:49:12.479Z,26.80
2023-01-19T00:49:45.166Z,24.90
2023-01-19T00:50:17.894Z,26.30
2023-01-19T00:50:50.545Z,22.80
2023-01-19T00:51:23.229Z,24.00
2023-01-19T00:51:55.900Z,24.40
2023-01-19T00:52:28.571Z,25.40
2023-01-19T00:53:02.073Z,28.20
2023-01-19T00:53:28.425Z,24.20
2023-01-19T00:54:01.091Z,24.90
2023-01-19T00:54:33.754Z,25.30
2023-01-19T00:55:06.434Z,25.30
2023-01-19T00:55:39.114Z,26.10
2023-01-19T00:56:11.781Z,24.60
2023-01-19T00:56:44.461Z,24.10
2023-01-19T00:57:17.130Z,25.10
2023-01-19T00:57:50.456Z,27.30
2023-01-19T00:58:16.623Z,26.30
2023-01-19T00:58:49.308Z,25.80
2023-01-19T00:59:21.963Z,24.50
2023-01-19T00:59:54.624Z,23.50
2023-01-19T01:00:27.298Z,24.10
2023-01-19T01:01:00.186Z,27.30
2023-01-19T01:01:45.811Z,25.30
2023-01-19T01:02:05.198Z,26.90
2023-01-19T01:02:31.603Z,28.40
2023-01-19T01:03:04.963Z,25.70
2023-01-19T01:03:31.393Z,27.90
2023-01-19T01:04:04.076Z,27.70
2023-01-19T01:04:36.719Z,28.00
2023-01-19T01:05:09.389Z,28.90
2023-01-19T01:05:42.080Z,27.80
2023-01-19T01:06:14.759Z,28.80
2023-01-19T01:06:47.429Z,26.10
2023-01-19T01:07:20.097Z,28.40
2023-01-19T01:07:52.796Z,27.00
2023-01-19T01:08:25.481Z,26.00
2023-01-19T01:08:58.149Z,29.20
2023-01-19T01:09:30.824Z,26.10
2023-01-19T01:10:03.516Z,29.40
2023-01-19T01:10:36.221Z,27.20
2023-01-19T01:11:08.918Z,27.40
2023-01-19T01:11:41.592Z,26.10
2023-01-19T01:12:14.242Z,27.50
2023-01-19T01:12:56.402Z,24.80
2023-01-19T01:13:20.800Z,27.60
2023-01-19T01:13:48.607Z,28.40
2023-01-19T01:14:21.326Z,27.90
2023-01-19T01:14:54.009Z,27.50
2023-01-19T01:15:26.852Z,26.50
2023-01-19T01:15:59.510Z,25.10
2023-01-19T01:16:32.208Z,25.40
2023-01-19T01:17:04.903Z,27.70
2023-01-19T01:17:37.553Z,29.00
2023-01-19T01:18:10.220Z,26.30
2023-01-19T01:18:42.902Z,26.00
2023-01-19T01:19:16.044Z,24.60
2023-01-19T01:19:42.179Z,24.70
2023-01-19T01:20:14.851Z,25.20
2023-01-19T01:20:47.560Z,26.20
2023-01-19T01:21:20.204Z,24.80
2023-01-19T01:21:52.880Z,24.50
2023-01-19T01:22:25.539Z,25.20
2023-01-19T01:22:58.841Z,25.10
2023-01-19T01:23:25.194Z,24.20
2023-01-19T01:23:57.864Z,26.10
2023-01-19T01:24:30.537Z,22.80
2023-01-19T01:25:03.208Z,24.30
2023-01-19T01:25:35.894Z,25.80
2023-01-19T01:26:08.564Z,28.40
2023-01-19T01:26:41.252Z,23.90
2023-01-19T01:27:13.928Z,20.50
2023-01-19T01:27:46.616Z,23.20
2023-01-19T01:28:19.290Z,22.80
2023-01-19T01:28:51.960Z,20.80
2023-01-19T01:29:24.626Z,25.00
2023-01-19T01:29:57.308Z,24.70
2023-01-19T01:30:29.971Z,20.50
2023-01-19T01:31:02.657Z,22.40
2023-01-19T01:31:35.443Z,25.70
2023-01-19T01:32:08.122Z,26.90
2023-01-19T01:32:40.785Z,24.90
2023-01-19T01:33:13.474Z,22.20
2023-01-19T01:33:46.146Z,21.90
2023-01-19T01:34:18.917Z,22.00
2023-01-19T01:34:51.556Z,26.50
2023-01-19T01:35:24.217Z,23.40
2023-01-19T01:35:56.906Z,23.80
2023-01-19T01:36:29.595Z,22.80
2023-01-19T01:37:02.259Z,22.40
2023-01-19T01:37:34.930Z,22.90
2023-01-19T01:38:07.616Z,22.40
2023-01-19T01:38:40.291Z,23.30
2023-01-19T01:39:12.951Z,23.20
2023-01-19T01:39:45.641Z,22.30
2023-01-19T01:40:18.306Z,25.40
2023-01-19T01:40:51.002Z,25.30
2023-01-19T01:41:25.544Z,22.40
2023-01-19T01:41:52.795Z,19.40
2023-01-19T01:42:22.107Z,23.40
2023-01-19T01:42:54.798Z,23.20
2023-01-19T01:43:27.461Z,23.50
2023-01-19T01:44:00.135Z,21.30
2023-01-19T01:44:32.812Z,20.90
2023-01-19T01:45:05.480Z,21.20
2023-01-19T01:45:38.215Z,21.50
2023-01-19T01:46:10.906Z,20.00
2023-01-19T01:46:43.559Z,20.40
2023-01-19T01:47:16.237Z,20.90
2023-01-19T01:47:48.910Z,20.80
2023-01-19T01:48:21.591Z,20.80
2023-01-19T01:48:54.264Z,21.60
2023-01-19T01:49:26.968Z,20.90
2023-01-19T01:49:59.607Z,19.70
2023-01-19T01:50:32.301Z,18.20
2023-01-19T01:51:04.969Z,19.40
2023-01-19T01:51:37.640Z,19.20
2023-01-19T01:52:10.309Z,19.70
2023-01-19T01:52:42.995Z,18.50
2023-01-19T01:53:15.099Z,18.10
2023-01-19T01:53:41.261Z,18.70
2023-01-19T01:54:13.933Z,21.80
2023-01-19T01:54:46.608Z,20.60
2023-01-19T01:55:19.309Z,19.50
2023-01-19T01:55:52.061Z,20.10
2023-01-19T01:56:24.728Z,19.00
2023-01-19T01:56:57.410Z,19.00
2023-01-19T01:57:30.075Z,18.00
2023-01-19T01:58:02.760Z,19.80
2023-01-19T01:58:35.420Z,17.50
2023-01-19T01:59:08.082Z,21.50
2023-01-19T01:59:40.812Z,21.40
2023-01-19T02:00:13.477Z,19.70
2023-01-19T02:00:46.179Z,17.90
2023-01-19T02:01:14.638Z,18.30
2023-01-19T02:01:47.382Z,21.10
2023-01-19T02:02:20.089Z,19.10
2023-01-19T02:02:52.924Z,20.40
2023-01-19T02:03:25.657Z,18.70
2023-01-19T02:03:58.326Z,20.20
2023-01-19T02:04:31.055Z,17.40
2023-01-19T02:05:03.693Z,20.60
2023-01-19T02:05:36.381Z,18.70
2023-01-19T02:06:09.045Z,20.80
2023-01-19T02:06:41.712Z,17.80
2023-01-19T02:07:12.794Z,17.80
2023-01-19T02:07:45.485Z,20.80
2023-01-19T02:08:18.128Z,23.60
2023-01-19T02:08:50.814Z,20.60
2023-01-19T02:09:23.479Z,20.80
2023-01-19T02:09:56.159Z,19.70
2023-01-19T02:10:28.822Z,19.40
2023-01-19T02:11:01.507Z,19.20
2023-01-19T02:11:34.185Z,18.80
2023-01-19T02:12:06.856Z,18.60
2023-01-19T02:12:39.516Z,20.00
2023-01-19T02:13:12.186Z,19.60
2023-01-19T02:13:44.872Z,20.80
2023-01-19T02:14:17.527Z,21.40
2023-01-19T02:14:50.196Z,17.50
2023-01-19T02:15:22.881Z,18.90
2023-01-19T02:15:55.534Z,18.60
2023-01-19T02:16:28.235Z,18.80
2023-01-19T02:17:00.921Z,18.80
2023-01-19T02:17:33.623Z,17.80
2023-01-19T02:18:06.295Z,21.20
2023-01-19T02:18:38.988Z,18.60
2023-01-19T02:19:11.648Z,17.50
2023-01-19T02:19:44.343Z,18.70
2023-01-19T02:20:16.991Z,20.60
2023-01-19T02:20:49.665Z,19.20
2023-01-19T02:21:22.359Z,21.80
2023-01-19T02:21:55.056Z,18.10
2023-01-19T02:22:27.723Z,18.90
2023-01-19T02:23:00.776Z,19.00
2023-01-19T02:23:27.143Z,19.00
2023-01-19T02:23:59.815Z,17.10
2023-01-19T02:24:32.484Z,16.90
2023-01-19T02:25:05.147Z,19.00
2023-01-19T02:25:37.834Z,19.80
2023-01-19T02:26:10.524Z,19.50
2023-01-19T02:26:43.201Z,19.90
2023-01-19T02:27:15.903Z,19.10
2023-01-19T02:27:48.541Z,20.80
2023-01-19T02:28:21.208Z,21.00
2023-01-19T02:28:53.884Z,19.30
2023-01-19T02:29:26.543Z,23.70
2023-01-19T02:29:59.214Z,20.50
2023-01-19T02:30:31.917Z,22.20
2023-01-19T02:31:04.589Z,21.60
2023-01-19T02:31:37.265Z,19.50
2023-01-19T02:32:09.967Z,23.30
2023-01-19T02:32:42.630Z,22.00
2023-01-19T02:33:15.310Z,20.90
2023-01-19T02:33:47.987Z,21.80
2023-01-19T02:34:20.640Z,21.20
2023-01-19T02:34:53.348Z,20.00
2023-01-19T02:35:26.006Z,19.90
2023-01-19T02:35:58.685Z,19.90
2023-01-19T02:36:31.353Z,19.70
2023-01-19T02:37:04.036Z,22.20
2023-01-19T02:37:36.707Z,23.70
2023-01-19T02:38:09.386Z,24.40
2023-01-19T02:38:42.064Z,23.80
2023-01-19T02:39:14.731Z,26.40
2023-01-19T02:39:47.430Z,25.50
2023-01-19T02:40:20.107Z,22.80
2023-01-19T02:40:52.770Z,24.50
2023-01-19T02:41:25.447Z,23.50
2023-01-19T02:41:58.136Z,27.50
2023-01-19T02:42:30.823Z,24.50
2023-01-19T02:43:03.967Z,23.40
2023-01-19T02:43:30.229Z,20.90
2023-01-19T02:44:02.904Z,22.20
2023-01-19T02:44:35.570Z,25.70
2023-01-19T02:45:08.249Z,24.90
2023-01-19T02:45:40.968Z,23.90
2023-01-19T02:46:13.656Z,23.80
2023-01-19T02:46:46.305Z,22.20
2023-01-19T02:47:18.975Z,20.90
2023-01-19T02:47:51.681Z,22.80
2023-01-19T02:48:22.761Z,23.50
2023-01-19T02:48:55.427Z,21.60
2023-01-19T02:49:28.107Z,23.30
2023-01-19T02:50:00.863Z,23.70
2023-01-19T02:50:33.537Z,22.10
2023-01-19T02:51:06.211Z,22.20
2023-01-19T02:51:38.890Z,20.90
2023-01-19T02:52:11.580Z,20.90
2023-01-19T02:52:44.265Z,21.90
2023-01-19T02:53:16.929Z,26.40
2023-01-19T02:53:49.598Z,21.60
2023-01-19T02:54:22.273Z,23.00
2023-01-19T02:54:54.943Z,24.00
2023-01-19T02:55:27.609Z,19.70
2023-01-19T02:56:00.276Z,21.20
2023-01-19T02:56:32.950Z,20.80
2023-01-19T02:57:05.616Z,20.30
2023-01-19T02:57:38.293Z,20.90
2023-01-19T02:58:10.971Z,19.10
2023-01-19T02:58:43.642Z,19.80
2023-01-19T02:59:16.363Z,23.40
2023-01-19T02:59:49.039Z,24.00
2023-01-19T03:00:21.893Z,22.60
2023-01-19T03:00:54.677Z,22.00
2023-01-19T03:01:27.438Z,20.80
2023-01-19T03:02:00.315Z,19.70
2023-01-19T03:02:33.184Z,20.50
2023-01-19T03:03:05.869Z,21.50
2023-01-19T03:03:38.524Z,21.50
2023-01-19T03:04:11.201Z,19.80
2023-01-19T03:04:43.871Z,20.90
2023-01-19T03:05:16.685Z,19.70
2023-01-19T03:05:49.323Z,23.20
2023-01-19T03:06:21.990Z,21.00
2023-01-19T03:06:54.671Z,20.30
2023-01-19T03:07:27.338Z,20.10
2023-01-19T03:08:00.034Z,21.30
2023-01-19T03:08:32.937Z,18.70
2023-01-19T03:09:05.600Z,18.70
2023-01-19T03:09:38.272Z,21.40
2023-01-19T03:10:10.941Z,18.90
2023-01-19T03:10:43.611Z,19.20
2023-01-19T03:11:16.278Z,22.30
2023-01-19T03:11:48.947Z,19.40
2023-01-19T03:12:21.625Z,22.00
2023-01-19T03:12:54.290Z,19.40
2023-01-19T03:13:27.006Z,18.50
2023-01-19T03:14:01.766Z,19.00
2023-01-19T03:14:28.075Z,20.00
2023-01-19T03:15:00.734Z,20.00
2023-01-19T03:15:33.438Z,20.60
2023-01-19T03:16:06.194Z,20.00
2023-01-19T03:16:38.940Z,23.60
2023-01-19T03:17:11.584Z,22.00
2023-01-19T03:17:44.254Z,24.30
2023-01-19T03:18:16.945Z,21.30
2023-01-19T03:18:49.660Z,20.80
2023-01-19T03:19:22.343Z,21.10
2023-01-19T03:19:55.006Z,22.70
2023-01-19T03:20:27.703Z,20.40
2023-01-19T03:21:00.348Z,19.20
2023-01-19T03:21:33.021Z,20.10
2023-01-19T03:22:05.703Z,21.00
2023-01-19T03:22:36.783Z,19.70
2023-01-19T03:23:09.453Z,19.30
2023-01-19T03:23:42.129Z,20.20
2023-01-19T03:24:14.819Z,21.60
2023-01-19T03:24:47.487Z,22.00
2023-01-19T03:25:20.170Z,22.70
2023-01-19T03:25:52.829Z,20.80
2023-01-19T03:26:23.916Z,21.10
2023-01-19T03:26:56.592Z,21.80
2023-01-19T03:27:29.272Z,21.50
2023-01-19T03:28:01.972Z,21.40
2023-01-19T03:28:34.615Z,19.70
2023-01-19T03:29:07.299Z,21.40
2023-01-19T03:29:39.981Z,21.20
2023-01-19T03:30:12.646Z,20.60
2023-01-19T03:30:45.318Z,20.80
2023-01-19T03:31:18.080Z,21.70
2023-01-19T03:31:50.758Z,21.40
2023-01-19T03:32:23.420Z,20.50
2023-01-19T03:32:56.099Z,18.90
2023-01-19T03:33:28.755Z,20.20
2023-01-19T03:34:01.431Z,19.80
2023-01-19T03:34:34.107Z,21.70
2023-01-19T03:35:06.790Z,21.10
2023-01-19T03:35:39.491Z,23.40
2023-01-19T03:36:12.139Z,23.00
2023-01-19T03:36:43.241Z,24.10
2023-01-19T03:37:15.902Z,26.90
2023-01-19T03:37:48.575Z,25.50
2023-01-19T03:38:21.247Z,26.00
2023-01-19T03:38:53.924Z,26.20
2023-01-19T03:39:26.627Z,22.90
2023-01-19T03:39:59.276Z,25.10
2023-01-19T03:40:31.949Z,25.10
2023-01-19T03:41:04.619Z,23.30
2023-01-19T03:41:37.292Z,22.70
2023-01-19T03:42:09.976Z,26.10
2023-01-19T03:42:42.667Z,25.30
2023-01-19T03:43:15.317Z,23.50
2023-01-19T03:43:47.997Z,23.90
2023-01-19T03:44:20.673Z,24.00
2023-01-19T03:44:53.345Z,25.80
2023-01-19T03:45:26.019Z,26.60
2023-01-19T03:45:58.739Z,24.90
2023-01-19T03:46:31.437Z,21.90
2023-01-19T03:47:04.108Z,23.20
2023-01-19T03:47:36.780Z,21.40
2023-01-19T03:48:09.447Z,22.60
2023-01-19T03:48:42.246Z,24.20
2023-01-19T03:49:14.934Z,25.40
2023-01-19T03:49:47.601Z,22.50
2023-01-19T03:50:20.267Z,26.00
2023-01-19T03:50:52.972Z,26.00
2023-01-19T03:51:25.650Z,23.80
2023-01-19T03:51:58.287Z,21.60
2023-01-19T03:52:30.958Z,22.40
2023-01-19T03:53:03.650Z,21.10
2023-01-19T03:53:36.307Z,20.70
2023-01-19T03:54:08.989Z,22.20
2023-01-19T03:54:41.661Z,24.00
2023-01-19T03:55:14.331Z,24.10
2023-01-19T03:55:47.009Z,23.00
2023-01-19T03:56:19.693Z,23.00
2023-01-19T03:56:52.408Z,21.30
2023-01-19T03:57:25.079Z,22.00
2023-01-19T03:57:57.746Z,21.40
2023-01-19T03:58:30.410Z,22.90
2023-01-19T03:59:03.081Z,24.70
2023-01-19T03:59:35.766Z,27.60
2023-01-19T04:00:08.450Z,20.80
2023-01-19T04:00:41.115Z,20.30
2023-01-19T04:01:13.840Z,23.20
2023-01-19T04:01:46.637Z,24.70
2023-01-19T04:02:19.329Z,24.40
2023-01-19T04:02:52.072Z,22.80
2023-01-19T04:03:24.716Z,23.30
2023-01-19T04:03:57.380Z,23.40
2023-01-19T04:04:30.070Z,23.00
2023-01-19T04:05:02.749Z,22.10
2023-01-19T04:05:35.407Z,23.90
2023-01-19T04:06:08.151Z,24.50
2023-01-19T04:06:40.792Z,20.30
2023-01-19T04:07:13.447Z,22.20
2023-01-19T04:07:46.117Z,24.50
2023-01-19T04:08:18.787Z,25.00
2023-01-19T04:08:51.508Z,24.80
2023-01-19T04:09:24.185Z,24.30
2023-01-19T04:09:56.859Z,27.00
2023-01-19T04:10:29.522Z,25.50
2023-01-19T04:11:02.205Z,26.70
2023-01-19T04:11:34.886Z,26.80
2023-01-19T04:12:07.580Z,24.80
2023-01-19T04:12:40.241Z,26.20
2023-01-19T04:13:12.916Z,26.30
2023-01-19T04:13:45.806Z,26.70
2023-01-19T04:14:18.476Z,24.30
2023-01-19T04:14:51.163Z,25.40
2023-01-19T04:15:23.844Z,24.30
2023-01-19T04:15:56.536Z,23.60
2023-01-19T04:16:29.184Z,27.00
2023-01-19T04:17:01.859Z,24.60
2023-01-19T04:17:34.532Z,25.40
2023-01-19T04:18:07.198Z,25.30
2023-01-19T04:18:39.868Z,24.40
2023-01-19T04:19:12.544Z,28.00
2023-01-19T04:19:45.252Z,27.10
2023-01-19T04:20:20.458Z,26.70
2023-01-19T04:20:46.625Z,23.80
2023-01-19T04:21:19.337Z,25.30
2023-01-19T04:21:51.969Z,26.70
2023-01-19T04:22:24.655Z,24.70
2023-01-19T04:22:57.348Z,25.70
2023-01-19T04:23:30.006Z,26.60
2023-01-19T04:24:02.684Z,23.80
2023-01-19T04:24:35.355Z,25.10
2023-01-19T04:25:08.024Z,24.40
2023-01-19T04:25:40.693Z,23.50
2023-01-19T04:26:13.361Z,24.30
2023-01-19T04:26:46.045Z,24.40
2023-01-19T04:27:18.705Z,24.60
2023-01-19T04:27:51.376Z,24.60
2023-01-19T04:28:24.044Z,25.20
2023-01-19T04:28:56.706Z,27.10
2023-01-19T04:29:29.387Z,27.90
2023-01-19T04:30:02.093Z,26.40
2023-01-19T04:30:34.759Z,24.80
2023-01-19T04:31:07.501Z,28.30
2023-01-19T04:31:40.167Z,25.20
2023-01-19T04:32:12.838Z,26.40
2023-01-19T04:32:45.519Z,24.50
2023-01-19T04:33:18.209Z,26.40
2023-01-19T04:33:50.882Z,25.80
2023-01-19T04:34:23.573Z,26.50
2023-01-19T04:34:56.249Z,26.60
2023-01-19T04:35:28.930Z,26.50
2023-01-19T04:36:01.593Z,27.00
2023-01-19T04:36:34.288Z,27.50
2023-01-19T04:37:06.938Z,26.20
2023-01-19T04:37:39.602Z,26.90
2023-01-19T04:38:12.281Z,28.00
2023-01-19T04:38:44.949Z,29.70
2023-01-19T04:39:17.623Z,28.20
2023-01-19T04:39:50.299Z,24.80
2023-01-19T04:40:22.968Z,25.80
2023-01-19T04:40:55.627Z,27.50
2023-01-19T04:41:29.664Z,26.50
2023-01-19T04:41:56.496Z,26.20
2023-01-19T04:42:29.166Z,27.50
2023-01-19T04:43:02.291Z,29.10
2023-01-19T04:43:28.635Z,28.20
2023-01-19T04:44:01.307Z,27.90
2023-01-19T04:44:33.990Z,26.90
2023-01-19T04:45:06.657Z,28.70
2023-01-19T04:45:39.331Z,28.40
2023-01-19T04:46:12.077Z,28.60
2023-01-19T04:46:44.794Z,26.70
2023-01-19T04:47:17.486Z,28.60
2023-01-19T04:47:50.164Z,29.00
2023-01-19T04:48:22.845Z,27.40
2023-01-19T04:48:55.520Z,27.30
2023-01-19T04:49:28.225Z,25.60
2023-01-19T04:50:00.909Z,25.20
2023-01-19T04:50:33.578Z,28.30
2023-01-19T04:51:06.261Z,29.80
2023-01-19T04:51:38.953Z,25.90
2023-01-19T04:52:11.639Z,29.00
2023-01-19T04:52:44.312Z,27.80
2023-01-19T04:53:17.009Z,28.70
2023-01-19T04:53:49.668Z,26.70
2023-01-19T04:54:22.351Z,27.70
2023-01-19T04:54:55.014Z,27.80
2023-01-19T04:55:27.693Z,26.60
2023-01-19T04:56:00.373Z,27.60
2023-01-19T04:56:33.061Z,28.50
2023-01-19T04:57:05.726Z,27.50
2023-01-19T04:57:38.389Z,28.40
2023-01-19T04:58:11.071Z,24.90
2023-01-19T04:58:43.753Z,26.60
2023-01-19T04:59:16.404Z,28.20
2023-01-19T04:59:49.105Z,27.50
2023-01-19T05:00:21.773Z,27.50
2023-01-19T05:00:54.494Z,26.50
2023-01-19T05:01:27.247Z,27.00
2023-01-19T05:01:59.971Z,29.10
2023-01-19T05:02:26.520Z,29.20
2023-01-19T05:02:59.759Z,28.50
2023-01-19T05:03:26.685Z,26.20
2023-01-19T05:03:52.938Z,26.50
2023-01-19T05:04:25.674Z,27.00
2023-01-19T05:04:58.326Z,29.20
2023-01-19T05:05:31.129Z,29.50
2023-01-19T05:06:03.809Z,26.10
2023-01-19T05:06:36.496Z,27.10
2023-01-19T05:07:09.212Z,25.70
2023-01-19T05:07:41.841Z,31.00
2023-01-19T05:08:14.522Z,28.90
2023-01-19T05:08:47.197Z,31.30
2023-01-19T05:09:19.885Z,28.80
2023-01-19T05:09:52.564Z,30.50
2023-01-19T05:10:25.231Z,29.90
2023-01-19T05:10:57.945Z,28.30
2023-01-19T05:11:30.596Z,27.80
2023-01-19T05:12:03.264Z,29.70
2023-01-19T05:12:35.937Z,28.00
2023-01-19T05:13:08.615Z,26.30
2023-01-19T05:13:41.273Z,26.80
2023-01-19T05:14:13.931Z,27.30
2023-01-19T05:14:46.618Z,28.70
2023-01-19T05:15:19.288Z,27.70
2023-01-19T05:15:51.979Z,27.40
2023-01-19T05:16:24.647Z,26.80
2023-01-19T05:16:57.289Z,28.50
2023-01-19T05:17:29.953Z,27.40
2023-01-19T05:18:02.627Z,28.80
2023-01-19T05:18:35.291Z,28.80
2023-01-19T05:19:07.959Z,28.80
2023-01-19T05:19:40.650Z,29.40
2023-01-19T05:20:15.850Z,31.30
2023-01-19T05:20:42.439Z,30.30
2023-01-19T05:21:15.107Z,27.80
2023-01-19T05:21:47.782Z,28.80
2023-01-19T05:22:20.498Z,29.00
2023-01-19T05:22:53.136Z,25.10
2023-01-19T05:23:25.801Z,27.50
2023-01-19T05:23:58.473Z,25.70
2023-01-19T05:24:31.141Z,25.90
2023-01-19T05:25:03.909Z,25.30
2023-01-19T05:25:36.580Z,26.00
2023-01-19T05:26:10.306Z,27.30
2023-01-19T05:26:36.571Z,29.70
2023-01-19T05:27:09.238Z,26.60
2023-01-19T05:27:41.909Z,24.90
2023-01-19T05:28:14.596Z,31.90
2023-01-19T05:28:47.263Z,29.00
2023-01-19T05:29:19.944Z,27.30
2023-01-19T05:29:52.652Z,28.00
2023-01-19T05:30:25.307Z,27.50
2023-01-19T05:30:58.092Z,24.50
2023-01-19T05:31:30.866Z,24.60
2023-01-19T05:32:03.556Z,26.00
2023-01-19T05:32:36.212Z,25.40
2023-01-19T05:33:08.911Z,26.10
2023-01-19T05:33:41.569Z,23.20
2023-01-19T05:34:14.239Z,24.60
2023-01-19T05:34:46.917Z,27.00
2023-01-19T05:35:27.767Z,27.20
2023-01-19T05:35:51.689Z,26.00
2023-01-19T05:36:17.883Z,25.90
2023-01-19T05:36:50.554Z,28.40
2023-01-19T05:37:23.231Z,24.80
2023-01-19T05:37:55.928Z,25.60
2023-01-19T05:38:35.150Z,26.80
2023-01-19T05:39:00.660Z,27.10
2023-01-19T05:39:26.871Z,27.70
2023-01-19T05:39:59.529Z,26.60
2023-01-19T05:40:32.190Z,25.20
2023-01-19T05:41:04.869Z,29.50
2023-01-19T05:41:37.528Z,24.90
2023-01-19T05:42:10.191Z,26.00
2023-01-19T05:42:42.868Z,26.60
2023-01-19T05:43:15.541Z,27.20
2023-01-19T05:43:48.213Z,24.50
2023-01-19T05:44:20.906Z,27.20
2023-01-19T05:44:53.601Z,24.80
2023-01-19T05:45:26.260Z,26.50
2023-01-19T05:45:58.936Z,26.20
2023-01-19T05:46:31.650Z,28.60
2023-01-19T05:47:04.301Z,27.10
2023-01-19T05:47:36.982Z,26.70
2023-01-19T05:48:10.300Z,28.70
2023-01-19T05:48:36.449Z,25.00
2023-01-19T05:49:09.117Z,25.90
2023-01-19T05:49:41.821Z,27.40
2023-01-19T05:50:14.494Z,28.40
2023-01-19T05:50:47.157Z,25.80
2023-01-19T05:51:19.828Z,26.20
2023-01-19T05:51:52.495Z,27.40
2023-01-19T05:52:25.254Z,24.30
2023-01-19T05:52:58.180Z,29.20
2023-01-19T05:53:24.674Z,25.80
2023-01-19T05:53:57.442Z,24.20
2023-01-19T05:54:30.125Z,24.80
2023-01-19T05:55:02.787Z,28.70
2023-01-19T05:55:35.458Z,27.60
2023-01-19T05:56:08.126Z,28.60
2023-01-19T05:56:40.823Z,28.20
2023-01-19T05:57:13.469Z,26.80
2023-01-19T05:57:46.129Z,25.60
2023-01-19T05:58:18.801Z,27.30
2023-01-19T05:58:51.473Z,28.60
2023-01-19T05:59:24.258Z,27.30
2023-01-19T05:59:56.939Z,26.60
2023-01-19T06:00:29.596Z,28.10
2023-01-19T06:01:02.285Z,25.40
2023-01-19T06:01:35.011Z,27.10
2023-01-19T06:02:07.692Z,26.10
2023-01-19T06:02:40.344Z,26.10
2023-01-19T06:03:13.105Z,26.20
2023-01-19T06:03:45.857Z,26.60
2023-01-19T06:04:18.508Z,28.50
2023-01-19T06:04:51.226Z,27.70
2023-01-19T06:05:23.887Z,27.40
2023-01-19T06:05:56.561Z,29.90
2023-01-19T06:06:29.254Z,24.60
2023-01-19T06:07:01.918Z,27.70
2023-01-19T06:07:34.711Z,25.80
2023-01-19T06:08:07.375Z,28.00
2023-01-19T06:08:40.021Z,25.70
2023-01-19T06:09:12.692Z,25.60
2023-01-19T06:09:45.389Z,28.30
2023-01-19T06:10:16.478Z,25.80
2023-01-19T06:10:49.153Z,25.60
2023-01-19T06:11:21.823Z,26.90
2023-01-19T06:11:54.502Z,27.50
2023-01-19T06:12:27.169Z,24.50
2023-01-19T06:13:00.323Z,25.80
2023-01-19T06:13:26.686Z,27.80
2023-01-19T06:13:59.355Z,25.60
2023-01-19T06:14:32.171Z,26.40
2023-01-19T06:15:04.845Z,24.60
2023-01-19T06:15:37.508Z,27.80
2023-01-19T06:16:10.220Z,28.80
2023-01-19T06:16:42.962Z,30.40
2023-01-19T06:17:15.654Z,26.30
2023-01-19T06:17:48.327Z,26.20
2023-01-19T06:18:20.996Z,29.10
2023-01-19T06:18:53.666Z,26.90
2023-01-19T06:19:26.384Z,27.80
2023-01-19T06:19:59.033Z,25.70
2023-01-19T06:20:31.711Z,25.90
2023-01-19T06:21:04.397Z,27.40
2023-01-19T06:21:37.061Z,26.20
2023-01-19T06:22:09.740Z,26.60
2023-01-19T06:22:42.424Z,25.00
2023-01-19T06:23:15.117Z,27.00
2023-01-19T06:23:47.755Z,25.40
2023-01-19T06:24:20.437Z,26.00
2023-01-19T06:24:53.117Z,29.10
2023-01-19T06:25:25.800Z,27.90
2023-01-19T06:25:58.508Z,29.10
2023-01-19T06:26:31.171Z,26.80
2023-01-19T06:27:04.003Z,26.20
2023-01-19T06:27:36.679Z,26.90
2023-01-19T06:28:09.363Z,27.80
2023-01-19T06:28:42.027Z,27.30
2023-01-19T06:29:14.725Z,26.50
2023-01-19T06:29:47.390Z,25.00
2023-01-19T06:30:20.067Z,26.10
2023-01-19T06:30:52.774Z,25.70
2023-01-19T06:31:25.515Z,25.30
2023-01-19T06:31:58.316Z,26.40
2023-01-19T06:32:31.008Z,28.20
2023-01-19T06:33:03.871Z,26.20
2023-01-19T06:33:36.576Z,28.20
2023-01-19T06:34:09.235Z,29.10
2023-01-19T06:34:41.913Z,26.50
2023-01-19T06:35:14.601Z,24.40
2023-01-19T06:35:47.283Z,25.00
2023-01-19T06:36:19.945Z,29.00
2023-01-19T06:36:52.608Z,24.70
2023-01-19T06:37:25.275Z,27.20
2023-01-19T06:37:57.945Z,25.80
2023-01-19T06:38:30.639Z,26.20
2023-01-19T06:39:03.324Z,25.20
2023-01-19T06:39:35.996Z,29.90
2023-01-19T06:40:08.677Z,25.90
2023-01-19T06:40:41.379Z,27.40
2023-01-19T06:41:14.064Z,26.50
2023-01-19T06:41:46.741Z,24.60
2023-01-19T06:42:19.436Z,25.90
2023-01-19T06:42:52.094Z,26.30
2023-01-19T06:43:24.768Z,24.90
2023-01-19T06:43:57.428Z,26.30
2023-01-19T06:44:30.110Z,23.90
2023-01-19T06:45:02.768Z,23.80
2023-01-19T06:45:35.482Z,26.10
2023-01-19T06:46:08.239Z,23.80
2023-01-19T06:46:35.044Z,23.30
2023-01-19T06:47:15.493Z,24.70
2023-01-19T06:47:39.815Z,25.30
2023-01-19T06:48:05.980Z,25.80
2023-01-19T06:48:38.669Z,24.50
2023-01-19T06:49:09.744Z,22.60
2023-01-19T06:49:42.429Z,27.30
2023-01-19T06:50:15.104Z,24.30
2023-01-19T06:50:47.765Z,26.10
2023-01-19T06:51:20.457Z,25.90
2023-01-19T06:51:53.134Z,27.10
2023-01-19T06:52:25.792Z,23.40
2023-01-19T06:52:58.988Z,25.20
2023-01-19T06:53:25.215Z,25.70
2023-01-19T06:53:57.905Z,21.80
2023-01-19T06:54:30.564Z,25.30
2023-01-19T06:55:03.244Z,26.60
2023-01-19T06:55:35.906Z,24.40
2023-01-19T06:56:06.999Z,25.50
2023-01-19T06:56:39.844Z,23.80
2023-01-19T06:57:06.504Z,25.00
2023-01-19T06:57:39.179Z,24.20